Morro de La Bandera, Chile
Current Conditions -  °F | °C
As of 5:00 PM on Sunday 23 Nov 2014 (Local Time) from SCEL Reporting Station
Broken Clouds Broken Clouds  
Wind Chill: 73°   Ceiling: 25000
Heat Index: 73°   Visibility: 6mi
Dew Point: 46°   Wind: 16mph
Humidity: 38%   Direction: 220°SW
Pressure: 29.91"   Gusts: NA
Location:  33.28°S, 71.22°W
Report Text: SCEL 232100Z 22014KT 9999 FEW180 BKN250 23/08 Q1013 NOSIG
Loading
Personal Weather Stations






























Interactive Weather Map New forecast layout! Learn more

10-Day Weather Forecast

Advertisements
Track Severe Weather on mobile